createdAt,value
2018-12-31T00:01:12.545Z,98040.41
2018-12-31T00:03:38.359Z,98043.47
2018-12-31T00:06:04.217Z,98047.59
2018-12-31T00:08:30.143Z,98048.90
2018-12-31T00:10:55.971Z,98053.20
2018-12-31T00:13:21.796Z,98063.27
2018-12-31T00:15:47.628Z,98059.61
2018-12-31T00:18:13.484Z,98063.16
2018-12-31T00:20:39.421Z,98065.28
2018-12-31T00:23:05.351Z,98053.78
2018-12-31T00:25:31.187Z,98056.53
2018-12-31T00:27:57.034Z,98056.53
2018-12-31T00:30:22.849Z,98061.52
2018-12-31T00:32:48.739Z,98055.00
2018-12-31T00:35:14.572Z,98062.09
2018-12-31T00:37:40.402Z,98068.97
2018-12-31T00:40:06.322Z,98072.05
2018-12-31T00:42:32.253Z,98076.03
2018-12-31T00:44:58.084Z,98081.86
2018-12-31T00:47:23.915Z,98079.63
2018-12-31T00:49:49.757Z,98083.73
2018-12-31T00:52:15.579Z,98078.84
2018-12-31T00:54:41.519Z,98079.20
2018-12-31T00:57:07.486Z,98088.16
2018-12-31T00:59:33.334Z,98088.09
2018-12-31T01:01:59.160Z,98092.26
2018-12-31T01:04:25.010Z,98084.30
2018-12-31T01:06:50.875Z,98077.51
2018-12-31T01:09:16.702Z,98082.99
2018-12-31T01:11:42.681Z,98080.16
2018-12-31T01:14:08.535Z,98072.49
2018-12-31T01:16:34.344Z,98079.63
2018-12-31T01:19:00.187Z,98071.97
2018-12-31T01:21:26.014Z,98071.97
2018-12-31T01:23:51.831Z,98069.66
2018-12-31T01:26:17.780Z,98071.45
2018-12-31T01:28:43.618Z,98076.20
2018-12-31T01:31:09.465Z,98067.25
2018-12-31T01:33:35.301Z,98057.55
2018-12-31T01:36:01.235Z,98066.16
2018-12-31T01:38:27.082Z,98059.38
2018-12-31T01:40:52.999Z,98057.81
2018-12-31T01:43:18.881Z,98050.45
2018-12-31T01:45:44.736Z,98057.30
2018-12-31T01:48:10.817Z,98058.12
2018-12-31T01:50:36.634Z,98057.05
2018-12-31T01:53:02.808Z,98053.64
2018-12-31T01:55:28.626Z,98055.98
2018-12-31T01:57:54.447Z,98059.92
2018-12-31T02:00:20.380Z,98067.77
2018-12-31T02:02:46.173Z,98072.49
2018-12-31T02:05:12.045Z,98061.61
2018-12-31T02:07:37.862Z,98056.56
2018-12-31T02:10:05.258Z,98061.80
2018-12-31T02:12:31.192Z,98063.90
2018-12-31T02:14:57.046Z,98068.02
2018-12-31T02:17:22.859Z,98073.02
2018-12-31T02:19:48.685Z,98073.06
2018-12-31T02:22:14.604Z,98079.77
2018-12-31T02:24:40.531Z,98081.63
2018-12-31T02:27:06.363Z,98070.14
2018-12-31T02:29:32.183Z,98058.39
2018-12-31T02:31:58.026Z,98063.90
2018-12-31T02:34:23.939Z,98055.98
2018-12-31T02:36:49.787Z,98056.75
2018-12-31T02:39:15.631Z,98061.75
2018-12-31T02:41:41.562Z,98057.30
2018-12-31T02:44:07.477Z,98055.20
2018-12-31T02:46:33.383Z,98048.14
2018-12-31T02:48:59.259Z,98044.48
2018-12-31T02:51:25.087Z,98041.84
2018-12-31T02:53:50.947Z,98050.45
2018-12-31T02:56:16.789Z,98048.11
2018-12-31T02:58:42.619Z,98042.36
2018-12-31T03:01:08.575Z,98036.88
2018-12-31T03:03:34.389Z,98038.18
2018-12-31T03:06:00.231Z,98031.64
2018-12-31T03:08:26.060Z,98041.75
2018-12-31T03:10:51.896Z,98044.34
2018-12-31T03:13:17.743Z,98048.66
2018-12-31T03:15:43.669Z,98049.69
2018-12-31T03:18:09.596Z,98054.33
2018-12-31T03:20:35.479Z,98056.56
2018-12-31T03:23:01.292Z,98053.17
2018-12-31T03:25:27.111Z,98053.42
2018-12-31T03:27:52.945Z,98066.00
2018-12-31T03:30:18.778Z,98059.42
2018-12-31T03:32:44.657Z,98058.63
2018-12-31T03:35:10.468Z,98030.62
2018-12-31T03:37:36.295Z,98013.83
2018-12-31T03:40:02.768Z,98016.14
2018-12-31T03:42:28.699Z,98010.61
2018-12-31T03:44:54.515Z,98014.05
2018-12-31T03:47:20.467Z,98023.21
2018-12-31T03:49:46.319Z,98027.08
2018-12-31T03:52:12.168Z,98037.91
2018-12-31T03:54:37.977Z,98050.07
2018-12-31T03:57:03.824Z,98062.72
2018-12-31T03:59:29.633Z,98060.64
2018-12-31T04:01:55.544Z,98052.02
2018-12-31T04:04:21.397Z,98047.34
2018-12-31T04:06:47.218Z,98048.16
2018-12-31T04:09:13.044Z,98064.66
2018-12-31T04:11:38.859Z,98068.59
2018-12-31T04:14:04.692Z,98073.06
2018-12-31T04:16:30.506Z,98066.49
2018-12-31T04:18:56.334Z,98053.12
2018-12-31T04:21:22.280Z,98042.63
2018-12-31T04:23:48.201Z,98024.00
2018-12-31T04:26:14.012Z,98035.45
2018-12-31T04:28:39.880Z,98057.44
2018-12-31T04:31:05.688Z,98072.42
2018-12-31T04:33:31.649Z,98081.03
2018-12-31T04:35:57.482Z,98083.71
2018-12-31T04:38:23.310Z,98098.29
2018-12-31T04:40:49.128Z,98094.48
2018-12-31T04:43:14.957Z,98081.95
2018-12-31T04:45:40.778Z,98069.05
2018-12-31T04:48:06.624Z,98057.87
2018-12-31T04:50:32.536Z,98058.47
2018-12-31T04:52:58.414Z,98068.27
2018-12-31T04:55:24.339Z,98078.97
2018-12-31T04:57:50.167Z,98073.16
2018-12-31T05:00:15.999Z,98062.89
2018-12-31T05:02:41.825Z,98076.91
2018-12-31T05:05:07.650Z,98081.34
2018-12-31T05:07:33.508Z,98079.48
2018-12-31T05:09:59.331Z,98088.73
2018-12-31T05:12:25.155Z,98071.94
2018-12-31T05:14:50.961Z,98077.08
2018-12-31T05:17:16.820Z,98081.45
2018-12-31T05:19:42.644Z,98069.24
2018-12-31T05:22:08.475Z,98076.53
2018-12-31T05:24:34.412Z,98087.73
2018-12-31T05:27:00.247Z,98078.84
2018-12-31T05:29:26.092Z,98072.70
2018-12-31T05:31:51.965Z,98075.63
2018-12-31T05:34:17.808Z,98081.19
2018-12-31T05:36:43.644Z,98080.55
2018-12-31T05:39:09.487Z,98085.20
2018-12-31T05:41:35.298Z,98100.60
2018-12-31T05:44:01.246Z,98104.68
2018-12-31T05:46:27.076Z,98091.78
2018-12-31T05:48:52.925Z,98084.10
2018-12-31T05:51:18.861Z,98083.95
2018-12-31T05:53:44.713Z,98087.27
2018-12-31T05:56:10.544Z,98087.48
2018-12-31T05:58:36.415Z,98079.50
2018-12-31T06:01:02.316Z,98086.16
2018-12-31T06:03:28.169Z,98088.34
2018-12-31T06:05:54.037Z,98089.95
2018-12-31T06:08:20.191Z,98094.67
2018-12-31T06:10:46.051Z,98093.93
2018-12-31T06:13:11.902Z,98090.27
2018-12-31T06:15:37.721Z,98092.62
2018-12-31T06:18:03.562Z,98099.94
2018-12-31T06:20:29.399Z,98100.48
2018-12-31T06:22:55.238Z,98097.02
2018-12-31T06:25:21.147Z,98103.27
2018-12-31T06:27:46.987Z,98098.03
2018-12-31T06:30:12.813Z,98104.48
2018-12-31T06:32:38.662Z,98100.04
2018-12-31T06:35:04.581Z,98104.70
2018-12-31T06:37:30.422Z,98110.46
2018-12-31T06:39:56.316Z,98106.28
2018-12-31T06:42:22.229Z,98100.02
2018-12-31T06:44:48.030Z,98105.47
2018-12-31T06:47:13.868Z,98106.53
2018-12-31T06:49:39.723Z,98104.80
2018-12-31T06:52:05.553Z,98107.66
2018-12-31T06:54:31.395Z,98108.67
2018-12-31T06:56:57.208Z,98109.73
2018-12-31T06:59:23.033Z,98115.19
2018-12-31T07:01:48.878Z,98113.23
2018-12-31T07:04:14.729Z,98113.56
2018-12-31T07:06:40.567Z,98108.91
2018-12-31T07:09:06.406Z,98109.02
2018-12-31T07:11:32.246Z,98098.03
2018-12-31T07:13:58.084Z,98105.28
2018-12-31T07:16:24.014Z,98102.91
2018-12-31T07:18:49.858Z,98107.53
2018-12-31T07:21:15.685Z,98110.98
2018-12-31T07:23:41.532Z,98115.70
2018-12-31T07:26:07.349Z,98130.76
2018-12-31T07:28:33.183Z,98119.77
2018-12-31T07:30:59.005Z,98125.47
2018-12-31T07:33:24.960Z,98131.02
2018-12-31T07:35:50.870Z,98138.74
2018-12-31T07:38:16.705Z,98156.69
2018-12-31T07:40:42.551Z,98158.05
2018-12-31T07:43:09.646Z,98163.52
2018-12-31T07:45:35.570Z,98165.31
2018-12-31T07:48:01.510Z,98148.64
2018-12-31T07:50:28.227Z,98124.01
2018-12-31T07:52:54.314Z,98159.69
2018-12-31T07:55:20.170Z,98156.45
2018-12-31T07:57:45.981Z,98157.04
2018-12-31T08:00:11.837Z,98151.16
2018-12-31T08:02:37.666Z,98148.14
2018-12-31T08:05:03.975Z,98153.30
2018-12-31T08:07:29.921Z,98160.00
2018-12-31T08:09:55.828Z,98152.99
2018-12-31T08:12:21.653Z,98139.87
2018-12-31T08:14:47.585Z,98142.39
2018-12-31T08:17:13.432Z,98129.62
2018-12-31T08:19:39.272Z,98121.70
2018-12-31T08:22:05.227Z,98121.16
2018-12-31T08:24:31.177Z,98128.96
2018-12-31T08:26:57.013Z,98129.05
2018-12-31T08:29:22.872Z,98131.66
2018-12-31T08:31:48.711Z,98127.92
2018-12-31T08:34:14.557Z,98145.78
2018-12-31T08:36:40.385Z,98150.34
2018-12-31T08:39:06.336Z,98153.51
2018-12-31T08:41:32.283Z,98151.31
2018-12-31T08:43:58.119Z,98148.55
2018-12-31T08:46:23.948Z,98159.20
2018-12-31T08:48:50.215Z,98173.14
2018-12-31T08:51:16.131Z,98180.14
2018-12-31T08:53:42.148Z,98185.34
2018-12-31T08:56:07.980Z,98167.15
2018-12-31T08:58:36.366Z,98153.97
2018-12-31T09:01:03.240Z,98164.80
2018-12-31T09:03:29.073Z,98173.36
2018-12-31T09:05:54.883Z,98175.95
2018-12-31T09:08:20.825Z,98171.72
2018-12-31T09:10:46.636Z,98168.22
2018-12-31T09:13:12.482Z,98158.50
2018-12-31T09:15:38.344Z,98159.53
2018-12-31T09:18:04.183Z,98152.98
2018-12-31T09:20:30.025Z,98161.18
2018-12-31T09:22:55.885Z,98171.35
2018-12-31T09:25:21.697Z,98157.63
2018-12-31T09:27:47.531Z,98157.73
2018-12-31T09:30:13.360Z,98163.27
2018-12-31T09:32:39.194Z,98163.34
2018-12-31T09:35:05.275Z,98165.69
2018-12-31T09:37:31.099Z,98171.14
2018-12-31T09:39:57.057Z,98171.53
2018-12-31T09:42:23.329Z,98161.30
2018-12-31T09:44:49.169Z,98159.17
2018-12-31T09:47:14.980Z,98163.92
2018-12-31T09:49:40.820Z,98163.16
2018-12-31T09:52:06.656Z,98154.84
2018-12-31T09:54:32.497Z,98157.56
2018-12-31T09:56:58.429Z,98163.10
2018-12-31T09:59:24.262Z,98156.17
2018-12-31T10:01:50.092Z,98157.16
2018-12-31T10:04:16.015Z,98161.11
2018-12-31T10:06:42.170Z,98165.53
2018-12-31T10:09:08.139Z,98162.64
2018-12-31T10:11:34.064Z,98152.16
2018-12-31T10:13:59.920Z,98145.04
2018-12-31T10:16:25.831Z,98148.85
2018-12-31T10:18:51.664Z,98145.24
2018-12-31T10:21:17.494Z,98144.80
2018-12-31T10:23:43.322Z,98144.66
2018-12-31T10:26:09.171Z,98142.99
2018-12-31T10:28:35.000Z,98133.52
2018-12-31T10:31:00.984Z,98133.37
2018-12-31T10:33:26.808Z,98133.20
2018-12-31T10:35:52.640Z,98143.63
2018-12-31T10:38:18.584Z,98150.08
2018-12-31T10:40:44.432Z,98144.00
2018-12-31T10:43:10.275Z,98155.32
2018-12-31T10:45:36.393Z,98148.47
2018-12-31T10:48:02.226Z,98138.66
2018-12-31T10:50:28.115Z,98130.41
2018-12-31T10:52:53.932Z,98118.59
2018-12-31T10:55:19.785Z,98122.77
2018-12-31T10:57:45.608Z,98125.69
2018-12-31T11:00:11.641Z,98133.30
2018-12-31T11:02:37.508Z,98131.22
2018-12-31T11:05:04.557Z,98123.48
2018-12-31T11:07:30.368Z,98113.66
2018-12-31T11:09:56.203Z,98108.17
2018-12-31T11:12:22.024Z,98105.30
2018-12-31T11:14:47.863Z,98106.66
2018-12-31T11:17:13.675Z,98112.94
2018-12-31T11:19:39.522Z,98104.56
2018-12-31T11:22:05.361Z,98106.94
2018-12-31T11:24:31.190Z,98114.68
2018-12-31T11:26:57.104Z,98104.31
2018-12-31T11:29:22.932Z,98102.50
2018-12-31T11:31:48.850Z,98097.53
2018-12-31T11:34:14.792Z,98101.98
2018-12-31T11:36:40.612Z,98095.98
2018-12-31T11:39:06.573Z,98095.42
2018-12-31T11:41:32.372Z,98095.39
2018-12-31T11:43:58.294Z,98084.27
2018-12-31T11:46:24.122Z,98082.31
2018-12-31T11:48:49.999Z,98075.45
2018-12-31T11:51:15.812Z,98069.23
2018-12-31T11:53:41.780Z,98074.76
2018-12-31T11:56:07.592Z,98079.02
2018-12-31T11:58:33.422Z,98081.03
2018-12-31T12:00:59.265Z,98077.16
2018-12-31T12:03:25.218Z,98081.13
2018-12-31T12:05:51.113Z,98072.40
2018-12-31T12:08:16.979Z,98070.00
2018-12-31T12:10:42.823Z,98067.98
2018-12-31T12:13:08.678Z,98087.02
2018-12-31T12:15:34.508Z,98068.40
2018-12-31T12:18:00.448Z,98080.89
2018-12-31T12:20:26.292Z,98075.86
2018-12-31T12:22:52.100Z,98072.12
2018-12-31T12:25:17.982Z,98073.37
2018-12-31T12:27:43.799Z,98073.81
2018-12-31T12:30:09.651Z,98076.23
2018-12-31T12:32:36.176Z,98067.63
2018-12-31T12:35:04.447Z,98077.31
2018-12-31T12:37:30.268Z,98079.60
2018-12-31T12:39:56.099Z,98076.92
2018-12-31T12:42:21.912Z,98084.69
2018-12-31T12:44:47.769Z,98088.22
2018-12-31T12:47:13.794Z,98091.05
2018-12-31T12:49:39.647Z,98089.80
2018-12-31T12:52:05.487Z,98091.59
2018-12-31T12:54:31.322Z,98087.11
2018-12-31T12:56:57.131Z,98095.79
2018-12-31T12:59:22.983Z,98101.53
2018-12-31T13:01:48.811Z,98096.21
2018-12-31T13:04:14.843Z,98095.92
2018-12-31T13:06:40.719Z,98097.75
2018-12-31T13:09:06.537Z,98092.38
2018-12-31T13:11:32.370Z,98098.34
2018-12-31T13:13:58.325Z,98107.61
2018-12-31T13:16:24.160Z,98104.76
2018-12-31T13:18:50.395Z,98109.66
2018-12-31T13:21:16.211Z,98107.92
2018-12-31T13:23:42.170Z,98107.78
2018-12-31T13:26:08.010Z,98095.31
2018-12-31T13:28:33.853Z,98102.34
2018-12-31T13:30:59.694Z,98099.72
2018-12-31T13:33:25.529Z,98098.98
2018-12-31T13:35:51.360Z,98111.02
2018-12-31T13:38:17.191Z,98106.47
2018-12-31T13:40:43.031Z,98106.34
2018-12-31T13:43:09.905Z,98101.34
2018-12-31T13:45:35.819Z,98097.17
2018-12-31T13:48:01.755Z,98098.01
2018-12-31T13:50:28.031Z,98101.19
2018-12-31T13:52:53.871Z,98100.16
2018-12-31T13:55:19.723Z,98098.01
2018-12-31T13:57:45.597Z,98106.55
2018-12-31T14:00:11.440Z,98100.15
2018-12-31T14:02:37.328Z,98103.84
2018-12-31T14:05:04.574Z,98097.91
2018-12-31T14:07:30.403Z,98098.17
2018-12-31T14:09:56.238Z,98111.55
2018-12-31T14:12:22.086Z,98113.30
2018-12-31T14:14:47.926Z,98119.80
2018-12-31T14:17:13.779Z,98113.26
2018-12-31T14:19:40.895Z,98116.19
2018-12-31T14:22:06.804Z,98112.22
2018-12-31T14:24:32.658Z,98096.91
2018-12-31T14:27:00.626Z,98094.03
2018-12-31T14:29:26.307Z,98095.45
2018-12-31T14:31:52.521Z,98098.53
2018-12-31T14:34:18.384Z,98107.60
2018-12-31T14:36:44.225Z,98105.41
2018-12-31T14:39:10.072Z,98100.40
2018-12-31T14:41:35.894Z,98102.94
2018-12-31T14:44:01.750Z,98103.70
2018-12-31T14:46:27.585Z,98100.94
2018-12-31T14:48:53.436Z,98101.09
2018-12-31T14:51:19.686Z,98103.27
2018-12-31T14:53:45.873Z,98108.89
2018-12-31T14:56:11.830Z,98119.83
2018-12-31T14:58:37.971Z,98110.75
2018-12-31T15:01:03.793Z,98113.95
2018-12-31T15:03:29.830Z,98118.52
2018-12-31T15:05:55.728Z,98123.36
2018-12-31T15:08:21.825Z,98118.13
2018-12-31T15:10:47.672Z,98113.95
2018-12-31T15:13:13.515Z,98119.80
2018-12-31T15:15:39.371Z,98133.20
2018-12-31T15:18:05.198Z,98132.97
2018-12-31T15:20:31.036Z,98133.22
2018-12-31T15:22:57.374Z,98128.04
2018-12-31T15:25:23.339Z,98116.77
2018-12-31T15:27:49.222Z,98122.02
2018-12-31T15:30:15.062Z,98113.08
2018-12-31T15:32:40.905Z,98111.26
2018-12-31T15:35:06.758Z,98105.74
2018-12-31T15:37:32.701Z,98105.91
2018-12-31T15:39:58.561Z,98108.09
2018-12-31T15:42:24.421Z,98108.28
2018-12-31T15:44:50.280Z,98107.22
2018-12-31T15:47:16.132Z,98123.34
2018-12-31T15:49:42.009Z,98121.34
2018-12-31T15:52:08.033Z,98129.14
2018-12-31T15:54:34.302Z,98130.95
2018-12-31T15:57:00.136Z,98138.27
2018-12-31T15:59:25.984Z,98138.28
2018-12-31T16:01:51.847Z,98142.66
2018-12-31T16:04:17.721Z,98138.59
2018-12-31T16:06:43.568Z,98150.28
2018-12-31T16:09:09.406Z,98145.78
2018-12-31T16:11:35.462Z,98137.22
2018-12-31T16:14:01.311Z,98134.80
2018-12-31T16:16:27.171Z,98140.63
2018-12-31T16:18:53.037Z,98139.84
2018-12-31T16:21:18.897Z,98135.72
2018-12-31T16:23:44.750Z,98136.58
2018-12-31T16:26:10.588Z,98128.20
2018-12-31T16:28:36.450Z,98128.20
2018-12-31T16:31:02.448Z,98130.02
2018-12-31T16:33:28.370Z,98121.21
2018-12-31T16:35:54.233Z,98125.86
2018-12-31T16:38:20.070Z,98122.05
2018-12-31T16:40:45.910Z,98120.95
2018-12-31T16:43:11.964Z,98127.92
2018-12-31T16:45:37.844Z,98127.92
2018-12-31T16:48:03.748Z,98127.99
2018-12-31T16:50:29.792Z,98130.80
2018-12-31T16:52:55.735Z,98126.59
2018-12-31T16:55:21.562Z,98127.44
2018-12-31T16:57:47.422Z,98123.47
2018-12-31T17:00:13.348Z,98130.22
2018-12-31T17:02:39.344Z,98125.44
2018-12-31T17:05:05.216Z,98124.56
2018-12-31T17:07:31.161Z,98129.10
2018-12-31T17:09:57.018Z,98125.53
2018-12-31T17:12:22.878Z,98128.90
2018-12-31T17:14:48.754Z,98131.76
2018-12-31T17:17:14.587Z,98142.00
2018-12-31T17:19:40.431Z,98150.34
2018-12-31T17:22:06.350Z,98154.20
2018-12-31T17:24:32.530Z,98156.63
2018-12-31T17:26:58.523Z,98158.94
2018-12-31T17:29:24.393Z,98150.52
2018-12-31T17:31:50.550Z,98140.69
2018-12-31T17:34:16.397Z,98140.69
2018-12-31T17:36:42.288Z,98130.56
2018-12-31T17:39:08.169Z,98133.72
2018-12-31T17:41:34.599Z,98135.52
2018-12-31T17:44:00.398Z,98125.84
2018-12-31T17:46:26.334Z,98126.16
2018-12-31T17:48:52.250Z,98127.13
2018-12-31T17:51:18.589Z,98129.66
2018-12-31T17:53:44.795Z,98137.64
2018-12-31T17:56:10.652Z,98137.89
2018-12-31T17:58:36.495Z,98143.59
2018-12-31T18:01:02.473Z,98143.34
2018-12-31T18:03:28.708Z,98137.82
2018-12-31T18:05:54.539Z,98132.78
2018-12-31T18:08:20.392Z,98144.98
2018-12-31T18:10:46.228Z,98147.39
2018-12-31T18:13:13.320Z,98147.33
2018-12-31T18:15:39.246Z,98144.80
2018-12-31T18:18:05.196Z,98140.80
2018-12-31T18:20:31.168Z,98145.09
2018-12-31T18:22:57.100Z,98151.00
2018-12-31T18:25:22.950Z,98145.15
2018-12-31T18:27:48.771Z,98152.45
2018-12-31T18:30:14.618Z,98155.12
2018-12-31T18:32:40.447Z,98164.23
2018-12-31T18:35:06.314Z,98159.53
2018-12-31T18:37:32.114Z,98157.95
2018-12-31T18:39:58.355Z,98157.22
2018-12-31T18:42:24.196Z,98160.07
2018-12-31T18:44:50.038Z,98157.56
2018-12-31T18:47:15.878Z,98159.80
2018-12-31T18:49:41.731Z,98161.20
2018-12-31T18:52:08.197Z,98164.95
2018-12-31T18:54:34.034Z,98163.91
2018-12-31T18:56:59.848Z,98167.66
2018-12-31T18:59:25.729Z,98168.47
2018-12-31T19:01:51.566Z,98172.91
2018-12-31T19:04:17.427Z,98175.70
2018-12-31T19:06:43.350Z,98176.88
2018-12-31T19:09:09.187Z,98174.77
2018-12-31T19:11:35.029Z,98180.96
2018-12-31T19:14:00.883Z,98184.05
2018-12-31T19:16:26.748Z,98179.98
2018-12-31T19:18:52.671Z,98181.73
2018-12-31T19:21:18.737Z,98189.16
2018-12-31T19:23:44.574Z,98184.57
2018-12-31T19:26:10.390Z,98184.23
2018-12-31T19:28:36.246Z,98185.51
2018-12-31T19:31:02.064Z,98186.48
2018-12-31T19:33:28.003Z,98187.02
2018-12-31T19:35:53.841Z,98189.94
2018-12-31T19:38:19.769Z,98187.89
2018-12-31T19:40:45.916Z,98189.03
2018-12-31T19:43:11.732Z,98187.54
2018-12-31T19:45:37.573Z,98189.09
2018-12-31T19:48:03.531Z,98191.66
2018-12-31T19:50:29.389Z,98187.72
2018-12-31T19:52:55.202Z,98181.98
2018-12-31T19:55:21.138Z,98187.91
2018-12-31T19:57:47.384Z,98186.75
2018-12-31T20:00:13.229Z,98170.00
2018-12-31T20:02:39.097Z,98183.25
2018-12-31T20:05:05.058Z,98187.92
2018-12-31T20:07:31.212Z,98194.48
2018-12-31T20:09:57.086Z,98177.17
2018-12-31T20:12:22.891Z,98177.17
2018-12-31T20:14:48.725Z,98175.16
2018-12-31T20:17:14.551Z,98175.83
2018-12-31T20:19:40.410Z,98180.27
2018-12-31T20:22:06.360Z,98172.57
2018-12-31T20:24:32.221Z,98178.03
2018-12-31T20:26:58.043Z,98176.84
2018-12-31T20:29:23.953Z,98177.67
2018-12-31T20:31:50.015Z,98175.55
2018-12-31T20:34:15.869Z,98161.38
2018-12-31T20:36:41.793Z,98165.84
2018-12-31T20:39:07.743Z,98168.47
2018-12-31T20:41:33.576Z,98165.58
2018-12-31T20:44:00.365Z,98169.53
2018-12-31T20:46:26.249Z,98190.25
2018-12-31T20:48:52.388Z,98172.88
2018-12-31T20:51:18.275Z,98161.34
2018-12-31T20:53:44.109Z,98161.30
2018-12-31T20:56:10.050Z,98160.19
2018-12-31T20:58:35.926Z,98170.20
2018-12-31T21:01:01.768Z,98176.25
2018-12-31T21:03:27.589Z,98166.59
2018-12-31T21:05:53.944Z,98160.88
2018-12-31T21:08:19.790Z,98158.25
2018-12-31T21:10:45.634Z,98160.59
2018-12-31T21:13:11.490Z,98159.80
2018-12-31T21:15:37.362Z,98155.34
2018-12-31T21:18:03.346Z,98155.08
2018-12-31T21:20:29.179Z,98152.19
2018-12-31T21:22:55.563Z,98147.74
2018-12-31T21:25:21.607Z,98149.83
2018-12-31T21:27:47.570Z,98153.25
2018-12-31T21:30:13.508Z,98148.70
2018-12-31T21:32:39.732Z,98149.16
2018-12-31T21:35:06.317Z,98147.90
2018-12-31T21:37:32.184Z,98150.94
2018-12-31T21:39:58.350Z,98141.59
2018-12-31T21:42:24.358Z,98148.11
2018-12-31T21:44:50.195Z,98153.80
2018-12-31T21:47:16.044Z,98156.05
2018-12-31T21:49:42.082Z,98144.62
2018-12-31T21:52:07.970Z,98147.59
2018-12-31T21:54:33.802Z,98151.91
2018-12-31T21:56:59.650Z,98146.28
2018-12-31T21:59:25.490Z,98141.63
2018-12-31T22:01:51.336Z,98142.08
2018-12-31T22:04:17.402Z,98144.05
2018-12-31T22:06:43.344Z,98145.51
2018-12-31T22:09:09.218Z,98137.89
2018-12-31T22:11:35.135Z,98139.61
2018-12-31T22:14:01.167Z,98134.23
2018-12-31T22:16:27.013Z,98135.02
2018-12-31T22:18:52.962Z,98135.02
2018-12-31T22:21:18.773Z,98134.61
2018-12-31T22:23:44.624Z,98136.19
2018-12-31T22:26:10.452Z,98136.98
2018-12-31T22:28:36.361Z,98133.36
2018-12-31T22:31:02.175Z,98131.73
2018-12-31T22:33:28.011Z,98128.09
2018-12-31T22:35:53.916Z,98125.13
2018-12-31T22:38:19.753Z,98125.02
2018-12-31T22:40:45.597Z,98118.48
2018-12-31T22:43:11.594Z,98124.68
2018-12-31T22:45:37.729Z,98132.36
2018-12-31T22:48:03.687Z,98127.52
2018-12-31T22:50:29.763Z,98128.41
2018-12-31T22:52:55.617Z,98128.48
2018-12-31T22:55:21.564Z,98118.22
2018-12-31T22:57:47.392Z,98131.46
2018-12-31T23:00:13.267Z,98129.38
2018-12-31T23:02:39.100Z,98115.99
2018-12-31T23:05:06.677Z,98110.22
2018-12-31T23:07:32.535Z,98104.44
2018-12-31T23:09:58.485Z,98104.44
2018-12-31T23:12:24.541Z,98113.09
2018-12-31T23:14:50.470Z,98108.68
2018-12-31T23:17:16.803Z,98108.68
2018-12-31T23:19:42.656Z,98094.44
2018-12-31T23:22:08.489Z,98102.91
2018-12-31T23:24:34.383Z,98101.86
2018-12-31T23:27:00.258Z,98104.70
2018-12-31T23:29:26.211Z,98101.00
2018-12-31T23:31:52.139Z,98107.02
2018-12-31T23:34:18.594Z,98102.39
2018-12-31T23:36:44.530Z,98102.95
2018-12-31T23:39:10.383Z,98097.19
2018-12-31T23:41:36.240Z,98095.50
2018-12-31T23:44:02.177Z,98088.69
2018-12-31T23:46:27.993Z,98091.56
2018-12-31T23:48:54.135Z,98085.90
2018-12-31T23:51:20.079Z,98089.84
2018-12-31T23:53:45.931Z,98088.02
2018-12-31T23:56:11.757Z,98089.07
2018-12-31T23:58:37.685Z,98085.39
